Terminal Aerodrome Forecast
Issued by NWS

Home | Current Version | Previous Version | Text Only | Print | Product List | Glossary On
Versions: 1 2 3 4 5 6 7 8 9 10 11 12 13 14 15 16 17 18 19 20 21 22 23 24 25 26 27 28 29 30 31 32 33
000
FTUS41 KBOX 020522
TAFBAF
TAF
KBAF 020522Z 0206/0306 36007KT P6SM -RA OVC007
     FM020800 36007KT 3SM BR OVC008
     FM021200 01006KT 3SM -DZ BR OVC008
     FM021500 01009KT P6SM OVC015
     FM021700 01009KT P6SM OVC025
     FM022000 02008KT P6SM BKN050=

USA.gov is the U.S. government's official web portal to all federal, state and local government web resources and services.